Green Bank, New Jersey
Current Conditions -  °F | °C
As of 10:03 PM on Wednesday 22 Oct 2014 (Local Time) from KACY Reporting Station
Light Rain Light Rain  
Wind Chill: 52°   Ceiling: 900
Heat Index: 52°   Visibility: 8mi
Dew Point: 50°   Wind: 20mph
Humidity: 93%   Direction: 340°NNW
Pressure: 29.75"   Gusts: 26mph
Location:  39.5436°N, 74.5919°W
Report Text: KACY 230203Z 34017G23KT 8SM -RA BKN009 BKN017 OVC022 11/10 A2975 RMK AO2 P0000 T01110100
Loading
Personal Weather Stations






























Interactive Weather Map
Tropical Storm Tracking
New forecast layout! Learn more

10-Day Weather Forecast

Advertisements
Track Severe Weather on mobile